Time;durP1;ratioP1;P1;durP2;ratioP2;P2;SDS_P1;SDS_P2;PMS_P1;PMS_P2;Temp;Humidity;BMP_temperature;BMP_pressure;BME280_temperature;BME280_humidity;BME280_pressure;Samples;Min_cycle;Max_cycle;Signal;HPM_P1;HPM_P2
2021/05/03 00:01:49;;;;;;;0.30;0.20;;;;;;;3.21;88.36;100747.63;5035073;28;20487;-47
2021/05/03 00:04:15;;;;;;;0.30;0.20;;;;;;;3.10;87.81;100757.13;5034721;28;20468;-47
2021/05/03 00:06:42;;;;;;;0.40;0.37;;;;;;;2.92;88.66;100751.72;5035153;28;20459;-46
2021/05/03 00:09:08;;;;;;;0.30;0.20;;;;;;;2.97;88.05;100753.50;5034944;28;20447;-47
2021/05/03 00:11:34;;;;;;;0.30;0.17;;;;;;;2.97;88.10;100750.00;5034604;28;20455;-47
2021/05/03 00:14:01;;;;;;;0.37;0.33;;;;;;;2.70;89.62;100744.47;5024091;28;20479;-47
2021/05/03 00:16:27;;;;;;;0.30;0.20;;;;;;;2.71;89.39;100747.13;5022986;28;20493;-47
2021/05/03 00:18:54;;;;;;;0.30;0.20;;;;;;;2.65;91.42;100747.94;5023304;28;20818;-47
2021/05/03 00:21:20;;;;;;;0.30;0.20;;;;;;;2.66;90.92;100747.09;5034701;28;20491;-47
2021/05/03 00:23:47;;;;;;;0.30;0.10;;;;;;;2.62;91.09;100747.03;5034915;28;20976;-47
2021/05/03 00:26:14;;;;;;;0.30;0.10;;;;;;;2.49;90.89;100753.00;5017066;28;20452;-47
2021/05/03 00:28:41;;;;;;;0.30;0.10;;;;;;;2.50;90.73;100758.28;5034640;28;20532;-47
2021/05/03 00:31:08;;;;;;;0.30;0.20;;;;;;;2.60;91.15;100754.91;5034634;28;21455;-47
2021/05/03 00:33:35;;;;;;;0.30;0.20;;;;;;;2.60;90.87;100759.22;5033910;28;20878;-47
2021/05/03 00:36:02;;;;;;;0.30;0.10;;;;;;;2.61;90.47;100768.91;5034707;28;20463;-47
2021/05/03 00:38:30;;;;;;;0.30;0.20;;;;;;;2.76;90.46;100750.69;5034444;28;20455;-47
2021/05/03 00:41:00;;;;;;;0.30;0.20;;;;;;;2.79;90.48;100749.84;5034513;28;20526;-47
2021/05/03 00:43:27;;;;;;;0.30;0.20;;;;;;;2.54;90.00;100754.81;5024530;28;20472;-47
2021/05/03 00:45:54;;;;;;;0.30;0.10;;;;;;;2.50;90.99;100757.41;5031419;28;20493;-47
2021/05/03 00:48:20;;;;;;;0.30;0.20;;;;;;;2.65;90.03;100761.06;5034019;28;20451;-51
2021/05/03 00:50:47;;;;;;;0.30;0.10;;;;;;;2.32;90.57;100761.53;5030185;28;20801;-47
2021/05/03 00:53:13;;;;;;;0.30;0.20;;;;;;;2.34;91.75;100761.59;5026533;28;20882;-48
2021/05/03 00:55:40;;;;;;;0.30;0.20;;;;;;;2.45;91.62;100759.06;5034310;28;20451;-47
2021/05/03 00:58:06;;;;;;;0.90;0.90;;;;;;;2.45;93.12;100761.69;5034205;28;20455;-47
2021/05/03 01:00:33;;;;;;;0.30;0.20;;;;;;;2.70;91.19;100757.59;5029155;28;20449;-47
2021/05/03 01:03:00;;;;;;;0.30;0.20;;;;;;;2.46;91.23;100755.56;5014298;28;20539;-47
2021/05/03 01:05:28;;;;;;;0.30;0.20;;;;;;;2.47;92.23;100758.25;5032206;28;20526;-47
2021/05/03 01:07:56;;;;;;;0.30;0.20;;;;;;;2.23;92.35;100766.69;5033911;28;20486;-47
2021/05/03 01:10:22;;;;;;;0.30;0.20;;;;;;;2.20;93.00;100764.03;5033675;28;20513;-49
2021/05/03 01:12:48;;;;;;;0.30;0.20;;;;;;;2.27;92.29;100763.22;5033970;28;20447;-47
2021/05/03 01:15:22;;;;;;;0.30;0.10;;;;;;;2.38;91.65;100764.25;5020096;28;20451;-47
2021/05/03 01:18:03;;;;;;;0.30;0.17;;;;;;;2.42;90.59;100767.78;5033508;28;20929;-48
2021/05/03 01:20:32;;;;;;;0.30;0.10;;;;;;;2.33;91.11;100760.72;5033845;28;20458;-47
2021/05/03 01:22:59;;;;;;;0.30;0.20;;;;;;;2.29;91.58;100765.88;5033221;28;20467;-47
2021/05/03 01:25:30;;;;;;;0.30;0.20;;;;;;;2.11;91.31;100769.16;5033495;28;20452;-48
2021/05/03 01:28:00;;;;;;;0.30;0.20;;;;;;;2.20;91.85;100765.78;5030151;28;20453;-47
2021/05/03 01:30:35;;;;;;;0.30;0.20;;;;;;;2.10;93.41;100770.00;5024094;28;20450;-47
2021/05/03 01:33:03;;;;;;;0.30;0.10;;;;;;;2.26;91.74;100758.84;5015796;28;20467;-47
2021/05/03 01:35:29;;;;;;;0.30;0.20;;;;;;;2.14;91.96;100763.06;5033793;28;20444;-47
2021/05/03 01:37:58;;;;;;;0.30;0.17;;;;;;;2.30;91.50;100768.50;5033441;28;20463;-47
2021/05/03 01:40:27;;;;;;;0.30;0.10;;;;;;;1.99;91.64;100776.84;5033126;28;20456;-47
2021/05/03 01:42:54;;;;;;;0.30;0.20;;;;;;;2.05;91.11;100776.91;5027398;28;20496;-46
2021/05/03 01:45:26;;;;;;;0.30;0.10;;;;;;;2.03;92.32;100776.91;5026082;28;20510;-47
2021/05/03 01:47:54;;;;;;;0.30;0.20;;;;;;;2.19;91.73;100771.84;5015566;28;20809;-48
2021/05/03 01:50:22;;;;;;;0.30;0.10;;;;;;;1.93;91.80;100771.53;5032333;28;20505;-47
2021/05/03 01:52:50;;;;;;;0.30;0.20;;;;;;;1.84;93.12;100774.88;5025655;28;20956;-47
2021/05/03 01:55:18;;;;;;;0.30;0.20;;;;;;;1.73;93.91;100777.34;5037112;28;20451;-47
2021/05/03 01:57:45;;;;;;;0.30;0.20;;;;;;;1.80;94.63;100773.09;5029083;28;20455;-48
2021/05/03 02:00:13;;;;;;;0.30;0.10;;;;;;;1.82;94.46;100776.59;5017818;28;20567;-47
2021/05/03 02:02:44;;;;;;;0.30;0.20;;;;;;;1.82;94.69;100774.00;5026064;28;20522;-47
2021/05/03 02:05:15;;;;;;;0.30;0.20;;;;;;;1.87;95.03;100774.91;5036969;28;20448;-47
2021/05/03 02:07:41;;;;;;;0.30;0.10;;;;;;;1.91;93.40;100776.72;5037428;28;20510;-47
2021/05/03 02:10:07;;;;;;;0.30;0.10;;;;;;;2.13;92.95;100779.66;5036755;28;20509;-47
2021/05/03 02:12:37;;;;;;;0.30;0.20;;;;;;;1.93;93.32;100776.78;5037138;28;20443;-47
2021/05/03 02:15:07;;;;;;;0.30;0.20;;;;;;;1.72;92.77;100780.81;5023619;28;20455;-47
2021/05/03 02:17:33;;;;;;;0.30;0.20;;;;;;;1.72;93.90;100780.81;5037034;28;20456;-48
2021/05/03 02:19:59;;;;;;;0.30;0.10;;;;;;;1.62;95.12;100776.28;5036798;28;20526;-47
2021/05/03 02:22:25;;;;;;;0.30;0.10;;;;;;;1.64;94.88;100773.69;5036816;28;20487;-47
2021/05/03 02:24:52;;;;;;;0.30;0.10;;;;;;;1.75;96.27;100775.63;5032051;28;20473;-47
2021/05/03 02:27:18;;;;;;;0.30;0.20;;;;;;;1.60;95.80;100785.00;5010996;28;20826;-47
2021/05/03 02:29:44;;;;;;;0.30;0.10;;;;;;;1.53;95.37;100780.53;5037448;28;20448;-47
2021/05/03 02:32:10;;;;;;;0.30;0.20;;;;;;;1.90;94.04;100788.06;5041822;28;20455;-47
2021/05/03 02:34:36;;;;;;;0.30;0.10;;;;;;;1.86;94.59;100781.03;5065033;23;20486;-55
2021/05/03 02:37:02;;;;;;;0.30;0.20;;;;;;;1.68;94.96;100783.38;5055315;28;20951;-55
2021/05/03 02:39:29;;;;;;;0.30;0.20;;;;;;;1.57;95.52;100779.72;5055400;28;20878;-56
2021/05/03 02:41:55;;;;;;;0.30;0.10;;;;;;;1.64;95.33;100789.41;5055557;28;20491;-56
2021/05/03 02:44:21;;;;;;;0.30;0.20;;;;;;;1.45;95.52;100786.50;5049731;28;20475;-55
2021/05/03 02:46:47;;;;;;;0.30;0.10;;;;;;;1.40;96.02;100792.53;5047306;28;20504;-56
2021/05/03 02:49:13;;;;;;;0.30;0.17;;;;;;;1.47;96.53;100789.16;5042973;28;20530;-56
2021/05/03 02:51:41;;;;;;;0.30;0.10;;;;;;;1.68;95.27;100789.50;5055339;28;20461;-56
2021/05/03 02:54:07;;;;;;;0.30;0.10;;;;;;;1.66;94.20;100800.81;5041890;28;20470;-56
2021/05/03 02:56:33;;;;;;;0.40;0.40;;;;;;;1.40;94.64;100801.28;5050255;28;20857;-56
2021/05/03 02:58:59;;;;;;;0.30;0.20;;;;;;;1.44;94.82;100795.22;5039257;28;20451;-55
2021/05/03 03:01:25;;;;;;;0.30;0.10;;;;;;;1.44;94.48;100802.19;5043044;28;20483;-55
2021/05/03 03:03:52;;;;;;;0.20;0.10;;;;;;;1.42;95.64;100798.69;5048576;28;20565;-56
2021/05/03 03:06:18;;;;;;;0.23;0.10;;;;;;;1.44;94.18;100807.44;5047098;28;20870;-56
2021/05/03 03:08:44;;;;;;;0.30;0.10;;;;;;;1.27;94.79;100808.91;5041777;28;20821;-56
2021/05/03 03:11:10;;;;;;;0.30;0.20;;;;;;;1.39;95.64;100806.50;5043326;28;20497;-56
2021/05/03 03:13:36;;;;;;;0.30;0.13;;;;;;;1.41;94.88;100813.50;5053036;28;20470;-56
2021/05/03 03:16:02;;;;;;;0.30;0.20;;;;;;;1.28;95.61;100801.06;5051612;28;20454;-56
2021/05/03 03:18:28;;;;;;;0.30;0.10;;;;;;;1.30;96.08;100806.31;5048719;28;20491;-56
2021/05/03 03:20:54;;;;;;;0.30;0.20;;;;;;;1.35;95.28;100813.41;5046409;28;20500;-56
2021/05/03 03:23:21;;;;;;;0.30;0.20;;;;;;;1.16;95.33;100812.19;5041574;28;20881;-56
2021/05/03 03:25:47;;;;;;;0.30;0.30;;;;;;;1.34;95.96;100810.75;5043127;28;20443;-57
2021/05/03 03:28:13;;;;;;;0.30;0.20;;;;;;;1.42;94.96;100814.41;5047653;28;20455;-56
2021/05/03 03:30:39;;;;;;;0.30;0.20;;;;;;;1.51;95.18;100821.50;5046080;28;20454;-57
2021/05/03 03:33:05;;;;;;;0.20;0.10;;;;;;;1.43;96.01;100830.13;5041136;28;20528;-56
2021/05/03 03:35:31;;;;;;;0.30;0.20;;;;;;;1.44;95.60;100831.00;5042752;28;20447;-57
2021/05/03 03:37:57;;;;;;;3.03;1.70;;;;;;;1.41;94.32;100824.00;5047563;28;20449;-56
2021/05/03 03:40:23;;;;;;;0.30;0.20;;;;;;;1.52;94.80;100829.41;5046142;28;20944;-56
2021/05/03 03:42:50;;;;;;;0.30;0.20;;;;;;;1.62;93.39;100827.81;5041842;28;20486;-56
2021/05/03 03:45:17;;;;;;;0.30;0.10;;;;;;;1.58;94.25;100831.25;5042584;28;20459;-56
2021/05/03 03:47:44;;;;;;;0.20;0.13;;;;;;;1.35;93.66;100830.84;5047618;28;20452;-56
2021/05/03 03:50:11;;;;;;;0.20;0.20;;;;;;;1.32;93.86;100828.19;5061388;28;20495;-56
2021/05/03 03:52:41;;;;;;;0.20;0.10;;;;;;;1.28;95.45;100829.88;5040816;28;20857;-56
2021/05/03 03:55:08;;;;;;;0.27;0.20;;;;;;;1.22;96.50;100829.75;5040475;28;20872;-56
2021/05/03 03:57:34;;;;;;;0.20;0.10;;;;;;;1.32;97.15;100826.44;5040546;28;20451;-56
2021/05/03 04:00:00;;;;;;;0.30;0.10;;;;;;;1.27;97.42;100828.09;5040743;28;20448;-56
2021/05/03 04:02:29;;;;;;;0.20;0.10;;;;;;;1.11;96.71;100832.19;5046483;28;20598;-56
2021/05/03 04:05:28;;;;;;;4.53;0.97;;;;;;;1.15;97.24;100835.75;5047063;28;20497;-56
2021/05/03 04:21:34;;;;;;;0.20;0.13;;;;;;;1.14;97.01;100842.72;5046876;28;20482;-56
2021/05/03 04:26:33;;;;;;;0.20;0.20;;;;;;;1.35;97.89;100843.94;5039853;28;20447;-56
2021/05/03 04:28:59;;;;;;;0.20;0.10;;;;;;;1.24;97.55;100840.28;5041994;28;20451;-56
2021/05/03 04:31:25;;;;;;;0.20;0.10;;;;;;;1.37;97.48;100840.53;5045953;28;20448;-56
2021/05/03 04:33:52;;;;;;;0.30;0.20;;;;;;;1.35;97.63;100846.56;5043353;28;21013;-56
2021/05/03 04:36:19;;;;;;;0.20;0.10;;;;;;;1.43;96.92;100844.97;5039707;28;20454;-56
2021/05/03 04:38:46;;;;;;;0.30;0.10;;;;;;;1.46;96.74;100845.91;5041397;28;20854;-56
2021/05/03 04:41:13;;;;;;;0.20;0.20;;;;;;;1.47;97.46;100850.28;5046241;28;20599;-55
2021/05/03 04:43:39;;;;;;;0.20;0.10;;;;;;;1.48;96.78;100853.78;5045639;28;20471;-56
2021/05/03 04:46:06;;;;;;;0.30;0.10;;;;;;;2.00;96.26;100854.63;5039624;28;20443;-56
2021/05/03 04:48:32;;;;;;;0.30;0.20;;;;;;;3.13;90.89;100845.56;5042385;28;20447;-53
2021/05/03 04:50:58;;;;;;;0.30;0.20;;;;;;;3.71;87.50;100849.66;5065999;28;20451;-53
2021/05/03 04:53:25;;;;;;;0.30;0.10;;;;;;;4.22;84.13;100848.25;5040002;28;20476;-54
2021/05/03 04:55:51;;;;;;;0.30;0.10;;;;;;;4.53;82.17;100851.06;5047333;28;20481;-55
2021/05/03 04:58:18;;;;;;;0.30;0.10;;;;;;;4.91;80.41;100849.44;5039612;28;20458;-54
2021/05/03 05:00:44;;;;;;;0.30;0.20;;;;;;;5.32;78.90;100856.59;5046156;28;20448;-54
2021/05/03 05:03:10;;;;;;;0.60;0.60;;;;;;;5.51;77.12;100850.47;5045538;28;21025;-54
2021/05/03 05:05:36;;;;;;;0.30;0.20;;;;;;;5.56;77.14;100855.75;5039248;28;20447;-54
2021/05/03 05:08:03;;;;;;;0.40;0.30;;;;;;;5.64;76.73;100860.16;5039230;28;21032;-55
2021/05/03 05:10:29;;;;;;;0.30;0.20;;;;;;;6.02;75.61;100854.00;5039450;28;20931;-54
2021/05/03 05:12:55;;;;;;;0.30;0.20;;;;;;;5.89;75.18;100860.13;5045960;28;20451;-55
2021/05/03 05:15:21;;;;;;;0.30;0.20;;;;;;;6.13;75.55;100861.91;5045626;28;20451;-55
2021/05/03 05:17:49;;;;;;;0.30;0.20;;;;;;;5.94;74.69;100851.41;5045602;28;20968;-55
2021/05/03 05:20:16;;;;;;;0.30;0.20;;;;;;;6.21;74.60;100854.88;5039564;28;20963;-54
2021/05/03 05:22:43;;;;;;;0.30;0.20;;;;;;;6.22;75.33;100857.53;5038606;28;20502;-55
2021/05/03 05:25:09;;;;;;;0.40;0.40;;;;;;;6.54;73.78;100861.84;5044758;28;20468;-55
2021/05/03 05:27:36;;;;;;;0.30;0.20;;;;;;;6.92;72.92;100861.69;5045581;28;21074;-55
2021/05/03 05:30:04;;;;;;;0.30;0.20;;;;;;;6.74;74.22;100869.72;5039577;28;20450;-55
2021/05/03 05:32:30;;;;;;;0.30;0.20;;;;;;;6.82;73.10;100860.84;5039190;28;20451;-55
2021/05/03 05:34:56;;;;;;;0.30;0.20;;;;;;;6.72;73.26;100863.56;5044183;28;20961;-55
2021/05/03 05:37:22;;;;;;;0.30;0.20;;;;;;;6.89;73.43;100859.09;5045433;28;20450;-55
2021/05/03 05:39:49;;;;;;;0.30;0.20;;;;;;;7.09;73.11;100856.31;5040075;28;20854;-55
2021/05/03 05:42:15;;;;;;;0.30;0.20;;;;;;;7.04;72.55;100863.41;5038994;28;20495;-55
2021/05/03 05:44:41;;;;;;;0.30;0.20;;;;;;;7.06;73.09;100859.00;5044467;28;20518;-55
2021/05/03 05:47:07;;;;;;;0.30;0.20;;;;;;;7.27;74.21;100864.19;5044388;28;20453;-55
2021/05/03 05:49:34;;;;;;;0.30;0.20;;;;;;;7.45;74.08;100867.59;5049555;28;20445;-55
2021/05/03 05:52:01;;;;;;;0.40;0.30;;;;;;;6.94;76.09;100866.97;5056028;28;20958;-55
2021/05/03 05:54:27;;;;;;;0.30;0.20;;;;;;;7.57;74.09;100867.50;5039769;28;20467;-55
2021/05/03 05:56:54;;;;;;;4.67;1.70;;;;;;;7.73;73.34;100863.84;5045002;28;20451;-55
2021/05/03 05:59:22;;;;;;;0.30;0.20;;;;;;;7.50;74.68;100873.72;5040605;28;20455;-55
2021/05/03 06:01:48;;;;;;;0.30;0.20;;;;;;;8.04;73.98;100869.75;5038850;28;20491;-55
2021/05/03 06:04:15;;;;;;;0.30;0.20;;;;;;;8.18;73.26;100865.22;5043206;28;20525;-55
2021/05/03 06:06:41;;;;;;;0.40;0.40;;;;;;;7.88;75.17;100862.84;5045530;28;20508;-55
2021/05/03 06:09:07;;;;;;;0.40;0.40;;;;;;;7.60;76.28;100867.47;5039166;28;20522;-55
2021/05/03 06:11:33;;;;;;;0.30;0.20;;;;;;;7.94;75.00;100866.31;5038348;28;20816;-55
2021/05/03 06:13:59;;;;;;;0.30;0.20;;;;;;;8.08;74.86;100862.66;5044750;28;20471;-56
2021/05/03 06:16:25;;;;;;;0.30;0.20;;;;;;;8.10;74.90;100868.84;5047773;28;20501;-55
2021/05/03 06:18:54;;;;;;;0.30;0.20;;;;;;;8.14;74.74;100873.22;5043676;28;20502;-55
2021/05/03 06:21:20;;;;;;;0.30;0.20;;;;;;;7.80;74.46;100870.84;5045232;28;20498;-55
2021/05/03 06:23:46;;;;;;;0.30;0.20;;;;;;;8.00;75.00;100874.22;5041083;28;20474;-54
2021/05/03 06:26:13;;;;;;;0.30;0.20;;;;;;;8.32;72.85;100870.38;5038595;28;20455;-55
2021/05/03 06:28:39;;;;;;;0.30;0.20;;;;;;;8.11;73.19;100875.91;5042522;28;20463;-55
2021/05/03 06:31:05;;;;;;;0.30;0.20;;;;;;;8.07;73.72;100877.66;5045476;28;20520;-55
2021/05/03 06:33:31;;;;;;;0.93;0.93;;;;;;;8.13;72.89;100874.09;5040845;28;20484;-55
2021/05/03 06:35:58;;;;;;;0.30;0.20;;;;;;;8.15;73.80;100875.84;5042186;28;20456;-55
2021/05/03 06:38:24;;;;;;;0.30;0.20;;;;;;;8.74;71.31;100869.06;5046349;28;20467;-56
2021/05/03 06:40:50;;;;;;;0.30;0.20;;;;;;;8.51;72.11;100874.63;5048899;28;20459;-56
2021/05/03 06:43:17;;;;;;;0.30;0.20;;;;;;;8.07;72.98;100866.19;5043946;28;20499;-55
2021/05/03 06:45:43;;;;;;;0.30;0.20;;;;;;;8.22;71.70;100866.06;5041870;28;20466;-55
2021/05/03 06:48:10;;;;;;;0.30;0.20;;;;;;;8.26;73.04;100867.81;5045473;28;20447;-56
2021/05/03 06:50:37;;;;;;;1.53;1.53;;;;;;;8.14;73.02;100868.78;5066159;28;20450;-55
2021/05/03 06:53:03;;;;;;;0.30;0.20;;;;;;;8.31;74.27;100880.09;5045389;28;20949;-55
2021/05/03 06:55:30;;;;;;;0.30;0.30;;;;;;;8.36;72.29;100877.47;5048449;28;20455;-55
2021/05/03 06:57:56;;;;;;;0.30;0.20;;;;;;;8.45;72.35;100872.03;5043682;28;20459;-56
2021/05/03 07:00:24;;;;;;;0.30;0.20;;;;;;;8.48;73.39;100877.28;5048477;28;20497;-55
2021/05/03 07:02:50;;;;;;;0.30;0.20;;;;;;;9.04;72.26;100881.06;5044720;28;20493;-56
2021/05/03 07:05:16;;;;;;;0.30;0.20;;;;;;;9.40;70.20;100882.34;5041257;28;20482;-54
2021/05/03 07:07:43;;;;;;;0.30;0.30;;;;;;;9.31;71.42;100873.63;5043423;28;20479;-56
2021/05/03 07:10:10;;;;;;;0.30;0.20;;;;;;;9.27;70.34;100874.59;5047923;28;20940;-56
2021/05/03 07:12:43;;;;;;;0.30;0.20;;;;;;;9.48;70.11;100872.50;5045335;28;20823;-55
2021/05/03 07:15:11;;;;;;;0.30;0.20;;;;;;;9.43;71.01;100863.72;5049928;28;20895;-55
2021/05/03 07:17:38;;;;;;;0.30;0.20;;;;;;;9.76;70.51;100866.78;5045963;28;20941;-53
2021/05/03 07:20:06;;;;;;;0.30;0.20;;;;;;;9.74;69.73;100864.16;5049623;28;20501;-53
2021/05/03 07:22:33;;;;;;;0.60;0.60;;;;;;;10.24;68.03;100859.78;5046832;28;20495;-54
2021/05/03 07:25:02;;;;;;;0.30;0.20;;;;;;;10.81;67.26;100854.25;5040148;28;20477;-54
2021/05/03 07:27:28;;;;;;;0.30;0.20;;;;;;;10.47;66.02;100859.38;5042231;28;20451;-55
2021/05/03 07:29:55;;;;;;;0.40;0.20;;;;;;;10.30;67.83;100861.47;5048111;28;20903;-55
2021/05/03 07:32:21;;;;;;;0.30;0.20;;;;;;;10.47;66.50;100855.84;5047467;28;20863;-55
2021/05/03 07:34:50;;;;;;;0.30;0.20;;;;;;;10.32;67.62;100854.34;5041410;28;20823;-55
2021/05/03 07:37:16;;;;;;;0.40;0.30;;;;;;;10.82;66.47;100845.34;5041662;28;20870;-55
2021/05/03 07:39:43;;;;;;;0.30;0.20;;;;;;;10.52;66.24;100843.31;5048272;28;20456;-54
2021/05/03 07:42:10;;;;;;;0.30;0.20;;;;;;;11.10;66.20;100848.34;5047980;28;20493;-55
2021/05/03 07:44:57;;;;;;;0.30;0.20;;;;;;;10.82;65.96;100849.81;5043290;28;20569;-55
2021/05/03 07:47:24;;;;;;;0.30;0.20;;;;;;;11.46;64.37;100837.75;5041633;28;20896;-55
2021/05/03 07:49:50;;;;;;;0.80;0.77;;;;;;;11.85;62.67;100839.50;5054948;28;20447;-53
2021/05/03 07:52:16;;;;;;;0.30;0.20;;;;;;;12.19;61.91;100837.75;5051447;28;20505;-54
2021/05/03 07:54:43;;;;;;;0.30;0.20;;;;;;;12.48;61.14;100845.84;5044220;28;20521;-54
2021/05/03 07:57:09;;;;;;;0.30;0.20;;;;;;;12.04;61.39;100839.00;5046005;28;20451;-54
2021/05/03 07:59:35;;;;;;;0.30;0.20;;;;;;;12.45;59.59;100840.56;5044002;28;20454;-53
2021/05/03 08:02:02;;;;;;;0.30;0.20;;;;;;;11.80;59.70;100838.75;5040713;28;20604;-54
2021/05/03 08:04:33;;;;;;;0.40;0.30;;;;;;;12.06;60.88;100839.84;5044442;28;20467;-53
2021/05/03 08:07:00;;;;;;;0.30;0.20;;;;;;;12.18;60.71;100836.00;5046965;28;20474;-53
2021/05/03 08:09:27;;;;;;;0.50;0.50;;;;;;;12.68;61.20;100840.81;5044531;28;20446;-54
2021/05/03 08:11:54;;;;;;;0.30;0.20;;;;;;;12.75;56.97;100831.75;5039938;28;20500;-54
2021/05/03 08:14:22;;;;;;;0.57;0.57;;;;;;;12.65;57.70;100838.25;5053294;28;20467;-54
2021/05/03 08:16:51;;;;;;;0.30;0.20;;;;;;;12.57;57.78;100834.03;5040103;28;20930;-54
2021/05/03 08:19:18;;;;;;;0.30;0.20;;;;;;;12.95;57.39;100833.81;5042135;28;20483;-54
2021/05/03 08:21:55;;;;;;;0.30;0.20;;;;;;;13.05;56.47;100831.75;5046692;28;20488;-54
2021/05/03 08:24:21;;;;;;;0.30;0.20;;;;;;;13.29;54.37;100824.81;5046888;28;20466;-54
2021/05/03 08:26:47;;;;;;;0.40;0.30;;;;;;;12.97;53.36;100821.28;5039117;28;20458;-54
2021/05/03 08:29:13;;;;;;;0.30;0.20;;;;;;;13.60;52.04;100819.38;5040123;28;20447;-54
2021/05/03 08:31:40;;;;;;;0.30;0.20;;;;;;;13.52;51.02;100822.28;5040287;28;20447;-54
2021/05/03 08:34:06;;;;;;;0.63;0.63;;;;;;;13.95;50.00;100820.88;5047919;23;20500;-48
2021/05/03 08:36:35;;;;;;;0.40;0.30;;;;;;;13.81;50.34;100813.31;4996994;28;20503;-49
2021/05/03 08:39:04;;;;;;;0.30;0.20;;;;;;;13.43;50.91;100814.59;5013572;28;20449;-50
2021/05/03 08:41:30;;;;;;;0.30;0.20;;;;;;;13.64;51.01;100810.34;5013722;28;20452;-50
2021/05/03 08:43:56;;;;;;;0.30;0.20;;;;;;;14.20;49.39;100820.91;4995735;28;20900;-49
2021/05/03 08:46:30;;;;;;;0.30;0.20;;;;;;;14.41;48.28;100819.28;5006073;28;20504;-50
2021/05/03 08:51:48;;;;;;;0.30;0.20;;;;;;;13.77;48.67;100801.00;5002784;28;20450;-49
2021/05/03 08:54:26;;;;;;;0.30;0.20;;;;;;;14.50;48.12;100802.91;4996234;28;21059;-50
2021/05/03 08:56:53;;;;;;;0.60;0.60;;;;;;;13.86;47.79;100802.50;5018639;28;20444;-50
2021/05/03 08:59:20;;;;;;;0.30;0.20;;;;;;;14.31;47.69;100805.34;5013577;28;20459;-49
2021/05/03 09:01:48;;;;;;;0.30;0.20;;;;;;;14.41;46.30;100804.09;5000349;28;20492;-49
2021/05/03 09:04:14;;;;;;;0.30;0.20;;;;;;;14.01;45.32;100795.75;4995980;28;20539;-49
2021/05/03 09:07:05;;;;;;;0.30;0.20;;;;;;;14.56;46.95;100796.50;5000023;28;20456;-49
2021/05/03 09:09:49;;;;;;;0.30;0.20;;;;;;;14.45;45.88;100803.09;5001671;28;20508;-49
2021/05/03 09:12:24;;;;;;;0.30;0.20;;;;;;;15.00;45.48;100798.34;4994982;28;20504;-49
2021/05/03 09:14:54;;;;;;;0.30;0.20;;;;;;;14.45;46.17;100800.41;5000168;28;20524;-50
2021/05/03 09:17:37;;;;;;;0.30;0.20;;;;;;;14.14;45.77;100795.28;4997254;28;20475;-49
2021/05/03 09:20:26;;;;;;;0.30;0.20;;;;;;;14.19;46.12;100789.75;4999889;28;20825;-49
2021/05/03 09:22:58;;;;;;;1.43;1.33;;;;;;;14.28;47.70;100786.75;5011720;28;20484;-49
2021/05/03 09:28:05;;;;;;;1.57;1.47;;;;;;;15.03;46.32;100770.59;4999828;28;20455;-49
2021/05/03 09:30:35;;;;;;;0.30;0.30;;;;;;;15.43;43.16;100769.00;5001369;28;20935;-49
2021/05/03 09:33:26;;;;;;;0.30;0.20;;;;;;;14.28;45.47;100768.03;5006082;28;20445;-49
2021/05/03 09:36:13;;;;;;;0.50;0.50;;;;;;;14.96;44.30;100761.06;5008856;28;20484;-49
2021/05/03 09:38:41;;;;;;;2.60;0.70;;;;;;;14.44;45.06;100753.19;5001093;28;20445;-49
2021/05/03 09:41:14;;;;;;;0.30;0.20;;;;;;;15.03;44.07;100754.50;5011838;28;20453;-49
2021/05/03 09:43:43;;;;;;;0.30;0.20;;;;;;;15.00;43.82;100744.81;5012061;28;20500;-49
2021/05/03 09:46:33;;;;;;;0.40;0.40;;;;;;;14.68;44.95;100743.38;4999971;28;20448;-49
2021/05/03 09:49:05;;;;;;;0.30;0.20;;;;;;;15.08;44.15;100745.38;4999990;28;20437;-49
2021/05/03 09:51:50;;;;;;;0.30;0.20;;;;;;;14.57;44.06;100734.91;4995372;28;20460;-49
2021/05/03 09:54:22;;;;;;;0.30;0.20;;;;;;;15.07;43.50;100730.22;4993463;28;20485;-49
2021/05/03 09:57:03;;;;;;;0.30;0.20;;;;;;;14.63;43.65;100728.41;5014886;28;20494;-49
2021/05/03 09:59:35;;;;;;;0.30;0.20;;;;;;;14.64;43.83;100732.84;5004128;28;20487;-49
2021/05/03 10:02:12;;;;;;;0.30;0.20;;;;;;;14.71;44.01;100732.56;5006607;28;20572;-49
2021/05/03 10:04:51;;;;;;;2.10;2.10;;;;;;;14.44;41.43;100733.59;5004743;28;20475;-50
2021/05/03 10:07:21;;;;;;;0.30;0.20;;;;;;;14.45;41.79;100727.31;4999401;28;20449;-49
2021/05/03 10:09:52;;;;;;;0.30;0.20;;;;;;;14.46;42.00;100734.41;5003012;28;20449;-50
2021/05/03 10:12:19;;;;;;;0.30;0.20;;;;;;;14.66;42.64;100737.19;5001177;28;20452;-49
2021/05/03 10:14:47;;;;;;;0.30;0.20;;;;;;;14.60;44.13;100734.78;5012635;28;20468;-49
2021/05/03 10:17:16;;;;;;;0.30;0.20;;;;;;;14.57;43.93;100723.31;5008937;28;20449;-49
2021/05/03 10:19:44;;;;;;;0.30;0.20;;;;;;;14.73;44.98;100724.47;5009765;28;20519;-49
2021/05/03 10:22:22;;;;;;;0.30;0.20;;;;;;;14.76;42.38;100717.19;5005142;28;20618;-49
2021/05/03 10:25:04;;;;;;;0.30;0.20;;;;;;;14.89;42.58;100725.63;4999649;28;20551;-50
2021/05/03 10:27:32;;;;;;;0.30;0.20;;;;;;;14.86;41.94;100731.09;4991600;28;20456;-49
2021/05/03 10:30:18;;;;;;;0.30;0.20;;;;;;;15.06;42.04;100725.81;5016017;28;20503;-49
2021/05/03 10:33:05;;;;;;;0.30;0.20;;;;;;;14.62;42.21;100727.56;5013651;28;20452;-49
2021/05/03 10:35:37;;;;;;;0.30;0.20;;;;;;;14.68;43.74;100719.31;5007844;28;20484;-49
2021/05/03 10:38:04;;;;;;;0.30;0.20;;;;;;;14.75;43.91;100727.94;5002875;28;20460;-49
2021/05/03 10:40:40;;;;;;;0.30;0.20;;;;;;;14.77;44.57;100726.09;5015607;28;20459;-49
2021/05/03 10:43:14;;;;;;;0.30;0.20;;;;;;;14.41;44.45;100717.66;5004555;28;20496;-49
2021/05/03 10:46:09;;;;;;;0.30;0.20;;;;;;;15.00;43.44;100717.16;5003553;28;20539;-49
2021/05/03 10:57:04;;;;;;;0.67;0.67;;;;;;;14.88;43.12;100697.09;5004797;28;20501;-48
2021/05/03 10:59:55;;;;;;;0.30;0.20;;;;;;;15.44;42.96;100690.34;5005308;28;20499;-49
2021/05/03 11:02:23;;;;;;;0.30;0.20;;;;;;;15.39;41.80;100683.41;5015412;28;20841;-50
2021/05/03 11:05:26;;;;;;;0.30;0.20;;;;;;;16.07;42.28;100677.81;5002528;28;20476;-49
2021/05/03 11:08:04;;;;;;;0.30;0.20;;;;;;;16.50;41.16;100674.03;4985619;28;20528;-49
2021/05/03 11:10:58;;;;;;;0.30;0.30;;;;;;;16.61;40.39;100681.59;5009079;28;20449;-49
2021/05/03 11:13:40;;;;;;;0.87;0.87;;;;;;;16.91;38.02;100679.28;5008888;28;20454;-49
2021/05/03 11:16:29;;;;;;;0.30;0.20;;;;;;;16.31;37.00;100663.28;4990761;28;20543;-50
2021/05/03 11:19:00;;;;;;;0.40;0.20;;;;;;;16.78;39.32;100666.44;4995638;28;20491;-50
2021/05/03 11:21:42;;;;;;;0.43;0.37;;;;;;;17.36;38.60;100657.31;5008035;28;20444;-49
2021/05/03 11:24:19;;;;;;;0.40;0.20;;;;;;;17.14;39.77;100654.84;5006350;28;20473;-49
2021/05/03 11:26:55;;;;;;;0.40;0.20;;;;;;;15.77;40.92;100659.47;4991699;28;20473;-49
2021/05/03 11:29:25;;;;;;;0.40;0.20;;;;;;;15.92;41.94;100644.53;5008608;28;20448;-50
2021/05/03 11:31:51;;;;;;;0.40;0.20;;;;;;;16.15;41.83;100643.44;5002832;28;20463;-49
2021/05/03 11:34:40;;;;;;;0.30;0.20;;;;;;;16.30;42.21;100643.59;4984171;28;20532;-49
2021/05/03 11:37:14;;;;;;;0.40;0.20;;;;;;;16.21;40.86;100651.25;5015213;28;20439;-49
2021/05/03 11:44:58;;;;;;;0.40;0.20;;;;;;;15.40;43.42;100661.03;5003358;28;20476;-49
2021/05/03 11:47:38;;;;;;;0.30;0.20;;;;;;;16.10;42.69;100641.00;5002152;28;20469;-50
2021/05/03 11:50:06;;;;;;;0.40;0.40;;;;;;;16.26;41.83;100636.66;5014992;28;20519;-49
2021/05/03 11:52:36;;;;;;;0.30;0.20;;;;;;;16.40;41.33;100621.72;5010134;28;20449;-50
2021/05/03 11:55:07;;;;;;;0.30;0.20;;;;;;;16.92;40.70;100627.31;5007853;28;20461;-50
2021/05/03 11:57:40;;;;;;;0.30;0.20;;;;;;;17.10;39.37;100612.94;5001299;28;20476;-48
2021/05/03 12:00:09;;;;;;;0.40;0.30;;;;;;;16.84;38.97;100615.09;4984569;28;20457;-48
2021/05/03 12:02:35;;;;;;;0.40;0.20;;;;;;;16.52;39.94;100605.03;5006282;28;20565;-49
2021/05/03 12:05:13;;;;;;;0.40;0.20;;;;;;;16.94;37.91;100602.09;5009474;28;20478;-50
2021/05/03 12:07:40;;;;;;;0.40;0.20;;;;;;;16.97;39.22;100606.44;4996783;28;20437;-48
2021/05/03 12:10:11;;;;;;;0.40;0.20;;;;;;;17.05;37.02;100599.75;4983942;28;20449;-49
2021/05/03 12:12:37;;;;;;;0.70;0.63;;;;;;;17.54;35.23;100605.28;5008023;28;20824;-48
2021/05/03 12:15:15;;;;;;;0.37;0.20;;;;;;;17.07;36.16;100594.31;5001041;28;20473;-48